Time;durP1;ratioP1;P1;durP2;ratioP2;P2;SDS_P1;SDS_P2;PMS_P1;PMS_P2;Temp;Humidity;BMP_temperature;BMP_pressure;BME280_temperature;BME280_humidity;BME280_pressure;Samples;Min_cycle;Max_cycle;Signal;HPM_P1;HPM_P2
2022/01/01 00:01:26;;;;;;;44.95;36.22;;;;;;;5.12;100.00;96827.59;5049728;28;24529;-73
2022/01/01 00:03:54;;;;;;;41.38;32.95;;;;;;;5.06;100.00;96831.13;5050096;28;24431;-73
2022/01/01 00:06:20;;;;;;;37.72;32.58;;;;;;;5.10;100.00;96827.59;5053493;28;24501;-74
2022/01/01 00:08:47;;;;;;;41.58;34.05;;;;;;;5.10;100.00;96837.03;5053778;28;24453;-74
2022/01/01 00:11:13;;;;;;;40.17;34.92;;;;;;;5.09;100.00;96843.91;5053645;28;24430;-74
2022/01/01 00:13:40;;;;;;;52.38;41.30;;;;;;;5.02;100.00;96839.78;5053366;28;25056;-73
2022/01/01 00:16:09;;;;;;;53.30;44.42;;;;;;;5.04;100.00;96835.47;5053527;28;24854;-73
2022/01/01 00:18:36;;;;;;;52.63;43.85;;;;;;;5.00;100.00;96835.56;5053533;28;25079;-73
2022/01/01 00:21:04;;;;;;;47.03;41.80;;;;;;;5.03;100.00;96833.75;5053524;28;24506;-74
2022/01/01 00:23:30;;;;;;;51.70;43.70;;;;;;;5.05;100.00;96831.19;5053342;28;24442;-73
2022/01/01 00:25:57;;;;;;;68.10;55.35;;;;;;;5.06;100.00;96833.69;5053080;28;24435;-74
2022/01/01 00:28:23;;;;;;;80.18;66.07;;;;;;;4.87;100.00;96829.88;5053337;28;24435;-74
2022/01/01 00:30:50;;;;;;;69.28;59.55;;;;;;;4.85;100.00;96841.91;5053457;28;24439;-74
2022/01/01 00:33:16;;;;;;;66.18;52.50;;;;;;;4.74;100.00;96833.59;5053321;28;24439;-73
2022/01/01 00:35:43;;;;;;;65.22;53.47;;;;;;;4.65;100.00;96841.53;5052617;28;24454;-73
2022/01/01 00:38:10;;;;;;;52.13;44.30;;;;;;;4.77;100.00;96846.38;5053258;28;24856;-74
2022/01/01 00:40:37;;;;;;;29.67;23.70;;;;;;;4.75;100.00;96840.44;5052996;28;25049;-74
2022/01/01 00:43:03;;;;;;;18.83;16.45;;;;;;;4.72;100.00;96845.63;5053293;28;24505;-74
2022/01/01 00:45:30;;;;;;;13.82;9.73;;;;;;;4.75;100.00;96841.28;5052871;28;24435;-74
2022/01/01 00:47:57;;;;;;;11.27;10.17;;;;;;;4.76;100.00;96842.97;5053222;28;24493;-74
2022/01/01 00:50:23;;;;;;;6.70;6.00;;;;;;;4.71;100.00;96849.06;5053118;28;24500;-73
2022/01/01 00:52:52;;;;;;;5.30;4.80;;;;;;;4.71;100.00;96843.94;5052431;28;24442;-73
2022/01/01 00:55:20;;;;;;;7.35;5.20;;;;;;;4.70;100.00;96848.22;5053112;28;24455;-73
2022/01/01 00:57:47;;;;;;;5.68;4.97;;;;;;;4.68;100.00;96846.59;5053035;28;24435;-73
2022/01/01 01:00:14;;;;;;;13.77;5.90;;;;;;;4.47;100.00;96850.44;5052992;28;24531;-73
2022/01/01 01:02:40;;;;;;;8.05;6.03;;;;;;;4.44;100.00;96859.06;5052928;28;24457;-74
2022/01/01 01:05:07;;;;;;;7.07;6.38;;;;;;;4.32;100.00;96854.19;5052481;28;24995;-74
2022/01/01 01:07:34;;;;;;;7.72;7.00;;;;;;;4.32;100.00;96851.63;5052472;28;24481;-73
2022/01/01 01:10:00;;;;;;;10.77;9.27;;;;;;;4.34;100.00;96852.44;5053015;28;24435;-73
2022/01/01 01:12:38;;;;;;;12.20;9.50;;;;;;;4.31;100.00;96847.38;5052586;28;24435;-73
2022/01/01 01:15:05;;;;;;;11.45;10.25;;;;;;;4.28;100.00;96850.84;5052418;28;24517;-73
2022/01/01 01:17:31;;;;;;;14.68;12.85;;;;;;;4.27;100.00;96846.59;5051922;28;24441;-74
2022/01/01 01:19:58;;;;;;;16.65;14.68;;;;;;;4.35;100.00;96846.44;5052607;28;24422;-74
2022/01/01 01:22:26;;;;;;;18.25;15.98;;;;;;;4.42;100.00;96845.44;5052146;28;24439;-74
2022/01/01 01:24:53;;;;;;;21.17;18.20;;;;;;;4.50;100.00;96840.13;5052526;28;24442;-74
2022/01/01 01:27:20;;;;;;;21.88;19.50;;;;;;;4.49;100.00;96846.16;5052361;28;24493;-73
2022/01/01 01:29:47;;;;;;;19.30;16.30;;;;;;;4.48;100.00;96840.16;5052364;28;24497;-73
2022/01/01 01:32:14;;;;;;;17.00;15.30;;;;;;;4.36;100.00;96840.41;5051773;28;24442;-73
2022/01/01 01:34:40;;;;;;;17.02;14.52;;;;;;;4.25;100.00;96842.38;5051868;28;24465;-73
2022/01/01 01:37:07;;;;;;;19.08;15.63;;;;;;;4.22;100.00;96850.97;5052003;28;24786;-73
2022/01/01 01:39:33;;;;;;;16.52;14.75;;;;;;;4.26;100.00;96850.00;5052265;28;24851;-73
2022/01/01 01:41:59;;;;;;;14.65;12.60;;;;;;;4.28;100.00;96860.25;5051923;28;24443;-73
2022/01/01 01:44:29;;;;;;;9.98;9.02;;;;;;;4.35;100.00;96851.56;5052167;28;24485;-73
2022/01/01 01:46:59;;;;;;;9.80;8.82;;;;;;;4.41;100.00;96860.84;5051635;28;24439;-73
2022/01/01 01:49:25;;;;;;;12.73;9.20;;;;;;;4.33;100.00;96846.44;5051957;28;24501;-74
2022/01/01 01:51:52;;;;;;;11.83;10.60;;;;;;;4.26;100.00;96857.72;5051810;28;24439;-74
2022/01/01 01:54:19;;;;;;;13.93;11.15;;;;;;;4.23;100.00;96850.09;5052137;28;24442;-73
2022/01/01 01:56:47;;;;;;;14.50;11.95;;;;;;;4.32;100.00;96854.19;5051595;28;24454;-74
2022/01/01 01:59:15;;;;;;;16.48;13.40;;;;;;;4.28;100.00;96860.25;5048547;28;24797;-74
2022/01/01 02:01:41;;;;;;;12.93;11.60;;;;;;;4.42;100.00;96860.81;5051364;28;24450;-73
2022/01/01 02:04:09;;;;;;;19.50;14.30;;;;;;;4.46;100.00;96857.31;5051854;28;24438;-74
2022/01/01 02:06:36;;;;;;;18.83;14.63;;;;;;;4.45;100.00;96860.75;5051403;28;24435;-74
2022/01/01 02:09:03;;;;;;;36.90;32.92;;;;;;;4.60;100.00;96855.28;5051933;28;24489;-74
2022/01/01 02:11:30;;;;;;;39.53;35.45;;;;;;;4.54;100.00;96862.28;5051329;28;24438;-74
2022/01/01 02:17:09;;;;;;;38.15;28.58;;;;;;;4.38;100.00;96866.06;5047164;28;24450;-75
2022/01/01 02:20:00;;;;;;;37.30;28.40;;;;;;;4.46;100.00;96859.88;5051104;28;25069;-74
2022/01/01 02:22:36;;;;;;;28.23;25.42;;;;;;;4.26;100.00;96859.44;5051127;28;24530;-74
2022/01/01 02:25:05;;;;;;;26.67;23.40;;;;;;;4.19;100.00;96853.59;5051593;28;24473;-74
2022/01/01 02:27:31;;;;;;;31.50;24.15;;;;;;;4.13;100.00;96857.13;5049925;28;25006;-74
2022/01/01 02:29:58;;;;;;;30.10;24.02;;;;;;;4.08;100.00;96850.41;5051282;28;24435;-73
2022/01/01 02:32:24;;;;;;;21.42;19.17;;;;;;;4.17;100.00;96860.47;5050970;28;24817;-73
2022/01/01 02:34:50;;;;;;;32.38;22.13;;;;;;;4.23;100.00;96855.22;5051275;28;24426;-74
2022/01/01 02:37:17;;;;;;;24.58;21.92;;;;;;;4.32;100.00;96857.59;5050671;28;24997;-73
2022/01/01 02:39:45;;;;;;;21.17;17.27;;;;;;;4.27;100.00;96868.84;5051200;28;24434;-73
2022/01/01 02:42:13;;;;;;;29.52;21.58;;;;;;;4.18;100.00;96869.00;5050953;28;24435;-73
2022/01/01 02:44:40;;;;;;;22.48;20.05;;;;;;;4.22;100.00;96871.47;5035141;28;24438;-74
2022/01/01 02:47:07;;;;;;;26.23;21.42;;;;;;;4.29;100.00;96859.38;5049849;28;24435;-74
2022/01/01 02:49:33;;;;;;;25.58;21.83;;;;;;;4.32;100.00;96870.41;5050946;28;24438;-73
2022/01/01 02:52:00;;;;;;;31.63;23.83;;;;;;;4.46;100.00;96864.16;5050343;28;24508;-73
2022/01/01 02:54:26;;;;;;;30.10;26.42;;;;;;;4.46;100.00;96874.44;5050700;28;24442;-74
2022/01/01 02:56:54;;;;;;;36.97;33.15;;;;;;;4.53;100.00;96868.28;5050059;28;24443;-73
2022/01/01 02:59:20;;;;;;;36.88;33.00;;;;;;;4.45;100.00;96859.88;5050708;28;24496;-74
2022/01/01 03:01:47;;;;;;;40.65;33.30;;;;;;;4.45;100.00;96871.03;5050375;28;24436;-73
2022/01/01 03:04:13;;;;;;;38.20;31.48;;;;;;;4.46;100.00;96865.00;5050332;28;24458;-74
2022/01/01 03:06:40;;;;;;;34.35;30.63;;;;;;;4.49;100.00;96864.94;5050394;28;24509;-74
2022/01/01 03:09:07;;;;;;;31.15;25.70;;;;;;;4.52;100.00;96871.72;5050647;28;24438;-73
2022/01/01 03:11:33;;;;;;;16.90;15.15;;;;;;;4.56;100.00;96865.63;5050444;28;24442;-74
2022/01/01 03:14:01;;;;;;;14.48;11.77;;;;;;;4.48;100.00;96864.97;5050539;28;24442;-74
2022/01/01 03:16:28;;;;;;;17.20;12.88;;;;;;;4.47;100.00;96868.41;5049871;28;24451;-73
2022/01/01 03:18:54;;;;;;;13.77;12.25;;;;;;;4.45;100.00;96868.47;5050318;28;24481;-74
2022/01/01 03:21:21;;;;;;;13.02;11.73;;;;;;;4.40;100.00;96866.84;5050539;28;24528;-73
2022/01/01 03:23:47;;;;;;;14.00;12.15;;;;;;;4.16;100.00;96863.09;5050364;28;24443;-73
2022/01/01 03:26:14;;;;;;;14.47;11.77;;;;;;;4.27;100.00;96867.13;5049780;28;24971;-74
2022/01/01 03:28:40;;;;;;;17.67;12.77;;;;;;;4.31;100.00;96865.34;5050422;28;24446;-74
2022/01/01 03:31:08;;;;;;;13.60;11.67;;;;;;;4.32;100.00;96849.91;5050269;28;24439;-73
2022/01/01 03:33:34;;;;;;;13.73;11.68;;;;;;;4.34;100.00;96855.84;5049979;28;24485;-73
2022/01/01 03:36:01;;;;;;;13.50;11.55;;;;;;;4.31;100.00;96852.50;5049957;28;24561;-73
2022/01/01 03:38:29;;;;;;;14.30;11.63;;;;;;;4.20;100.00;96852.72;5049833;28;25011;-73
2022/01/01 03:40:55;;;;;;;14.23;11.80;;;;;;;4.29;100.00;96852.53;5049798;28;24442;-73
2022/01/01 03:43:22;;;;;;;14.03;11.63;;;;;;;4.24;100.00;96848.38;5050098;28;24962;-73
2022/01/01 03:45:48;;;;;;;14.77;13.17;;;;;;;4.05;100.00;96846.19;5049433;28;24456;-73
2022/01/01 03:48:16;;;;;;;12.98;10.90;;;;;;;4.13;100.00;96838.34;5050018;28;24442;-73
2022/01/01 03:50:42;;;;;;;12.90;11.10;;;;;;;4.17;100.00;96847.66;5050206;28;24450;-72
2022/01/01 03:53:11;;;;;;;15.23;11.82;;;;;;;4.14;100.00;96852.84;5049879;28;24439;-72
2022/01/01 03:55:37;;;;;;;14.35;11.13;;;;;;;4.07;100.00;96858.97;5049611;28;24444;-72
2022/01/01 03:58:04;;;;;;;12.38;11.07;;;;;;;4.11;100.00;96856.28;5050028;28;24439;-73
2022/01/01 04:00:30;;;;;;;13.38;9.77;;;;;;;4.15;100.00;96846.00;5049797;28;25015;-74
2022/01/01 04:03:05;;;;;;;10.27;9.18;;;;;;;4.18;100.00;96849.34;5050122;28;24439;-74
2022/01/01 04:05:34;;;;;;;11.10;9.45;;;;;;;4.26;100.00;96844.03;5049692;28;24436;-74
2022/01/01 04:08:01;;;;;;;9.50;8.50;;;;;;;4.32;100.00;96843.94;5050098;28;24431;-74
2022/01/01 04:10:29;;;;;;;9.07;8.10;;;;;;;4.39;100.00;96836.97;5049571;28;24494;-74
2022/01/01 04:12:55;;;;;;;10.73;8.73;;;;;;;4.44;100.00;96838.53;5049408;28;24502;-74
2022/01/01 04:15:21;;;;;;;9.18;8.10;;;;;;;4.50;100.00;96845.25;5049804;28;24832;-74
2022/01/01 04:17:48;;;;;;;13.65;9.70;;;;;;;4.37;100.00;96847.22;5049799;28;24455;-74
2022/01/01 04:20:15;;;;;;;9.02;8.13;;;;;;;4.48;100.00;96845.28;5049555;28;24496;-73
2022/01/01 04:22:43;;;;;;;9.35;7.90;;;;;;;4.55;100.00;96841.72;5049470;28;24447;-74
2022/01/01 04:25:10;;;;;;;10.90;8.85;;;;;;;4.47;100.00;96841.03;5049625;28;24840;-73
2022/01/01 04:27:36;;;;;;;10.38;7.47;;;;;;;4.49;100.00;96846.16;5049470;28;24431;-74
2022/01/01 04:30:03;;;;;;;9.95;7.85;;;;;;;4.55;100.00;96841.72;5049490;28;25000;-74
2022/01/01 04:32:29;;;;;;;8.63;7.82;;;;;;;4.46;100.00;96847.06;5049475;28;24443;-74
2022/01/01 04:34:56;;;;;;;12.68;8.82;;;;;;;4.37;100.00;96849.78;5049526;28;24446;-74
2022/01/01 04:37:22;;;;;;;8.45;7.72;;;;;;;4.27;100.00;96849.16;5049256;28;24457;-75
2022/01/01 04:39:55;;;;;;;9.70;8.57;;;;;;;4.25;100.00;96844.94;5049415;28;25023;-73
2022/01/01 04:42:22;;;;;;;8.25;7.45;;;;;;;4.30;100.00;96843.09;5049390;28;24470;-73
2022/01/01 04:44:48;;;;;;;8.60;7.10;;;;;;;4.41;100.00;96843.72;5049383;28;24435;-74
2022/01/01 04:47:15;;;;;;;8.35;7.35;;;;;;;4.45;100.00;96841.94;5049505;28;24844;-74
2022/01/01 04:49:41;;;;;;;9.52;7.10;;;;;;;4.50;100.00;96833.28;5049129;28;24998;-72
2022/01/01 04:52:08;;;;;;;9.00;6.93;;;;;;;4.48;100.00;96839.31;5051635;28;24813;-73
2022/01/01 04:54:39;;;;;;;9.43;7.03;;;;;;;4.50;100.00;96835.00;5052930;28;24439;-73
2022/01/01 04:57:07;;;;;;;8.50;7.03;;;;;;;4.42;100.00;96835.16;5052799;28;24455;-74
2022/01/01 04:59:35;;;;;;;7.97;6.75;;;;;;;4.46;100.00;96834.22;5052631;28;24454;-74
2022/01/01 05:02:01;;;;;;;7.60;6.90;;;;;;;4.40;100.00;96839.47;5052868;28;25011;-73
2022/01/01 05:04:28;;;;;;;8.10;7.25;;;;;;;4.39;100.00;96840.38;5052843;28;24434;-73
2022/01/01 05:06:54;;;;;;;9.27;7.85;;;;;;;4.38;100.00;96842.97;5052632;28;24434;-73
2022/01/01 05:09:21;;;;;;;7.90;7.07;;;;;;;4.32;100.00;96833.66;5052362;28;24435;-73
2022/01/01 05:11:48;;;;;;;9.43;8.10;;;;;;;4.06;100.00;96835.06;5052593;28;24427;-73
2022/01/01 05:14:16;;;;;;;8.33;7.43;;;;;;;4.15;100.00;96846.00;5052627;28;25013;-74
2022/01/01 05:16:43;;;;;;;9.70;8.77;;;;;;;3.96;100.00;96848.91;5052061;28;24489;-73
2022/01/01 05:19:10;;;;;;;10.57;9.38;;;;;;;4.00;100.00;96852.25;5052706;28;24438;-73
2022/01/01 05:21:36;;;;;;;12.05;8.20;;;;;;;3.99;100.00;96843.72;5052426;28;24443;-73
2022/01/01 05:24:04;;;;;;;9.15;8.15;;;;;;;4.04;100.00;96854.75;5052384;28;24444;-73
2022/01/01 05:26:31;;;;;;;8.90;7.88;;;;;;;4.04;100.00;96857.31;5052086;28;24443;-73
2022/01/01 05:28:58;;;;;;;7.97;7.28;;;;;;;4.06;100.00;96853.00;5052007;28;25007;-73
2022/01/01 05:31:26;;;;;;;10.15;7.50;;;;;;;4.07;100.00;96849.53;5052434;28;24493;-73
2022/01/01 05:33:55;;;;;;;9.05;7.78;;;;;;;4.12;100.00;96852.88;5052218;28;24493;-73
2022/01/01 05:36:21;;;;;;;11.75;8.55;;;;;;;4.13;100.00;96853.72;5051766;28;24481;-73
2022/01/01 05:38:48;;;;;;;7.03;6.43;;;;;;;4.07;100.00;96857.22;5052098;28;24987;-74
2022/01/01 05:41:14;;;;;;;7.88;7.18;;;;;;;3.93;100.00;96850.69;5051757;28;25026;-73
2022/01/01 05:43:41;;;;;;;9.55;7.60;;;;;;;3.71;100.00;96845.13;5051991;28;24984;-74
2022/01/01 05:46:07;;;;;;;8.63;7.70;;;;;;;3.60;100.00;96859.00;5051859;28;24808;-73
2022/01/01 05:48:35;;;;;;;11.55;9.10;;;;;;;3.43;100.00;96857.59;5052135;28;24427;-74
2022/01/01 05:51:03;;;;;;;9.40;8.43;;;;;;;3.31;100.00;96856.09;5051617;28;24432;-73
2022/01/01 05:53:30;;;;;;;9.07;8.18;;;;;;;3.25;100.00;96866.44;5052109;28;24984;-74
2022/01/01 05:55:56;;;;;;;12.70;8.27;;;;;;;3.21;100.00;96870.75;5051741;28;24493;-73
2022/01/01 05:58:23;;;;;;;8.43;7.63;;;;;;;3.23;100.00;96875.88;5051758;28;24454;-74
2022/01/01 06:00:49;;;;;;;8.52;7.60;;;;;;;3.31;100.00;96879.13;5051539;28;24440;-74
2022/01/01 06:03:17;;;;;;;7.55;6.35;;;;;;;3.48;100.00;96876.28;5051101;28;25029;-74
2022/01/01 06:05:45;;;;;;;7.15;5.88;;;;;;;3.59;100.00;96880.34;5051682;28;24501;-74
2022/01/01 06:08:12;;;;;;;6.20;5.45;;;;;;;3.56;100.00;96884.66;5051824;28;24477;-74
2022/01/01 06:10:39;;;;;;;7.20;6.50;;;;;;;3.77;100.00;96883.47;5051737;28;24427;-73
2022/01/01 06:13:07;;;;;;;7.75;6.68;;;;;;;3.65;100.00;96889.66;5051270;28;24445;-73
2022/01/01 06:15:33;;;;;;;8.77;7.90;;;;;;;3.87;100.00;96897.78;5051000;28;24562;-73
2022/01/01 06:18:00;;;;;;;7.97;7.18;;;;;;;3.88;100.00;96897.75;5051452;28;24813;-72
2022/01/01 06:20:26;;;;;;;9.35;7.90;;;;;;;4.08;100.00;96887.16;5051253;28;24984;-72
2022/01/01 06:22:54;;;;;;;8.40;7.47;;;;;;;3.82;100.00;96891.88;5051098;28;24585;-73
2022/01/01 06:25:21;;;;;;;9.10;7.85;;;;;;;3.71;100.00;96889.56;5051254;28;24534;-74
2022/01/01 06:27:47;;;;;;;10.25;8.10;;;;;;;3.94;100.00;96888.28;5051111;28;24431;-74
2022/01/01 06:30:14;;;;;;;8.98;7.82;;;;;;;3.97;100.00;96891.63;5051327;28;24438;-74
2022/01/01 06:32:40;;;;;;;8.02;7.30;;;;;;;3.81;100.00;96898.75;5050974;28;24448;-74
2022/01/01 06:35:07;;;;;;;10.55;8.13;;;;;;;3.71;100.00;96896.38;5051165;28;24837;-74
2022/01/01 06:37:34;;;;;;;13.88;10.82;;;;;;;3.75;100.00;96892.91;5051020;28;24443;-74
2022/01/01 06:40:02;;;;;;;11.82;10.15;;;;;;;3.79;100.00;96890.25;5051037;28;24442;-73
2022/01/01 06:42:28;;;;;;;12.37;11.17;;;;;;;3.76;100.00;96898.00;5050853;28;24503;-74
2022/01/01 06:44:54;;;;;;;12.70;10.67;;;;;;;3.76;100.00;96902.28;5050850;28;24439;-73
2022/01/01 06:47:21;;;;;;;11.93;10.63;;;;;;;3.82;100.00;96899.59;5034198;28;25011;-73
2022/01/01 06:49:47;;;;;;;15.73;12.53;;;;;;;3.79;100.00;96902.22;5050982;28;24502;-73
2022/01/01 06:52:14;;;;;;;12.40;10.23;;;;;;;3.90;100.00;96886.66;5041286;28;24527;-73
2022/01/01 06:54:40;;;;;;;11.13;9.70;;;;;;;3.76;100.00;96894.59;5050613;28;24577;-73
2022/01/01 06:57:08;;;;;;;10.20;9.17;;;;;;;3.78;100.00;96888.56;5049890;28;24892;-72
2022/01/01 06:59:34;;;;;;;9.07;8.20;;;;;;;3.74;100.00;96888.63;5050579;28;24436;-72
2022/01/01 07:02:01;;;;;;;9.80;8.73;;;;;;;3.61;100.00;96885.44;5050907;28;24443;-73
2022/01/01 07:04:27;;;;;;;8.43;7.55;;;;;;;3.70;100.00;96882.72;5050533;28;24443;-74
2022/01/01 07:06:54;;;;;;;11.50;8.75;;;;;;;3.59;100.00;96879.50;5050415;28;24481;-73
2022/01/01 07:09:20;;;;;;;24.33;9.45;;;;;;;3.43;100.00;96881.50;5050308;28;24793;-72
2022/01/01 07:11:47;;;;;;;32.10;8.55;;;;;;;3.24;100.00;96877.53;5050332;28;24431;-73
2022/01/01 07:14:15;;;;;;;11.82;8.05;;;;;;;3.13;100.00;96882.84;5049710;28;24437;-73
2022/01/01 07:16:41;;;;;;;6.60;5.68;;;;;;;3.01;100.00;96883.88;5050230;28;24442;-73
2022/01/01 07:19:07;;;;;;;6.72;5.35;;;;;;;3.01;100.00;96899.22;5050710;28;24435;-73
2022/01/01 07:21:34;;;;;;;6.18;5.57;;;;;;;3.02;100.00;96888.13;5050157;28;24944;-73
2022/01/01 07:24:00;;;;;;;6.00;5.50;;;;;;;3.06;100.00;96886.34;5050108;28;24435;-73
2022/01/01 07:26:27;;;;;;;6.18;5.57;;;;;;;3.21;100.00;96887.84;5050054;28;24522;-72
2022/01/01 07:28:53;;;;;;;6.22;5.57;;;;;;;3.30;100.00;96896.22;5050094;28;24535;-72
2022/01/01 07:31:21;;;;;;;7.97;7.03;;;;;;;3.37;100.00;96899.50;5050533;28;24509;-72
2022/01/01 07:33:48;;;;;;;14.70;10.73;;;;;;;3.19;100.00;96892.13;5049667;28;24797;-74
2022/01/01 07:36:14;;;;;;;7.03;6.33;;;;;;;3.07;100.00;96904.25;5049973;28;24880;-74
2022/01/01 07:38:40;;;;;;;6.63;5.57;;;;;;;3.00;100.00;96914.59;5050218;28;24486;-74
2022/01/01 07:41:07;;;;;;;7.43;6.73;;;;;;;3.09;100.00;96909.34;5049992;28;24821;-73
2022/01/01 07:43:33;;;;;;;7.63;6.00;;;;;;;3.05;100.00;96897.47;5049748;28;24493;-74
2022/01/01 07:46:00;;;;;;;6.05;4.75;;;;;;;3.09;100.00;96892.28;5049909;28;24431;-73
2022/01/01 07:48:27;;;;;;;6.90;5.07;;;;;;;3.30;100.00;96882.53;5050014;28;24445;-73
2022/01/01 07:50:54;;;;;;;5.72;5.00;;;;;;;3.43;100.00;96881.50;5050088;28;24431;-73
2022/01/01 07:53:20;;;;;;;5.28;4.75;;;;;;;3.49;100.00;96878.00;5049953;28;24443;-73
2022/01/01 07:55:47;;;;;;;6.47;4.45;;;;;;;3.52;100.00;96871.09;5049438;28;24451;-73
2022/01/01 07:58:13;;;;;;;7.88;4.28;;;;;;;3.71;100.00;96870.75;5049763;28;24459;-73
2022/01/01 08:00:40;;;;;;;6.03;4.60;;;;;;;3.85;100.00;96864.50;5049917;28;24431;-73
2022/01/01 08:03:06;;;;;;;6.00;5.40;;;;;;;3.92;100.00;96867.78;5050093;28;24439;-73
2022/01/01 08:05:34;;;;;;;7.35;5.28;;;;;;;3.94;100.00;96868.63;5049488;28;24431;-72
2022/01/01 08:08:00;;;;;;;5.50;4.70;;;;;;;3.98;100.00;96859.16;5049706;28;24477;-74
2022/01/01 08:10:27;;;;;;;12.90;5.65;;;;;;;4.36;100.00;96866.06;5049640;28;24513;-74
2022/01/01 08:12:53;;;;;;;6.53;5.13;;;;;;;4.36;100.00;96871.19;5049998;28;24446;-74
2022/01/01 08:15:21;;;;;;;7.78;7.03;;;;;;;3.95;100.00;96870.31;5049696;28;24446;-73
2022/01/01 08:17:47;;;;;;;8.40;6.28;;;;;;;3.83;100.00;96883.34;5049232;28;25046;-74
2022/01/01 08:20:14;;;;;;;8.18;5.90;;;;;;;3.87;100.00;96880.69;5049726;28;25042;-73
2022/01/01 08:22:42;;;;;;;7.30;5.60;;;;;;;3.76;100.00;96885.19;5049608;28;24991;-73
2022/01/01 08:25:09;;;;;;;34.45;26.63;;;;;;;3.84;100.00;96892.72;5050264;28;24509;-72
2022/01/01 08:27:36;;;;;;;16.45;12.45;;;;;;;3.86;100.00;96898.69;5053315;28;24438;-73
2022/01/01 08:30:02;;;;;;;8.75;7.40;;;;;;;3.83;100.00;96901.28;5053631;28;24489;-74
2022/01/01 08:32:29;;;;;;;5.97;5.32;;;;;;;3.90;100.00;96904.59;5053497;28;24442;-73
2022/01/01 08:34:55;;;;;;;7.18;6.47;;;;;;;4.02;100.00;96909.47;5053352;28;24979;-72
2022/01/01 08:37:22;;;;;;;7.15;6.47;;;;;;;4.15;100.00;96905.78;5052885;28;25116;-73
2022/01/01 08:39:49;;;;;;;8.25;7.45;;;;;;;4.20;100.00;96904.00;5052282;28;24484;-74
2022/01/01 08:42:16;;;;;;;8.98;8.13;;;;;;;4.25;100.00;96902.19;5053251;28;24992;-73
2022/01/01 08:44:43;;;;;;;7.88;6.72;;;;;;;4.32;100.00;96887.53;5053098;28;24485;-73
2022/01/01 08:47:10;;;;;;;5.22;4.55;;;;;;;4.40;100.00;96895.06;5053084;28;25015;-74
2022/01/01 08:49:36;;;;;;;6.70;5.70;;;;;;;4.44;100.00;96900.09;5053130;28;24871;-72
2022/01/01 08:52:04;;;;;;;6.72;5.50;;;;;;;4.33;100.00;96902.88;5052824;28;24501;-74
2022/01/01 08:54:30;;;;;;;6.40;3.90;;;;;;;4.34;100.00;96906.31;5053026;28;25067;-73
2022/01/01 08:56:58;;;;;;;4.10;3.70;;;;;;;4.52;100.00;96912.75;5052642;28;25240;-73
2022/01/01 08:59:24;;;;;;;4.35;3.65;;;;;;;4.58;100.00;96926.31;5052796;28;24447;-72
2022/01/01 09:01:50;;;;;;;4.38;3.97;;;;;;;4.74;100.00;96915.72;5052489;28;24443;-73
2022/01/01 09:04:17;;;;;;;4.72;4.32;;;;;;;4.99;100.00;96916.88;5052865;28;24458;-73
2022/01/01 09:06:43;;;;;;;4.90;4.40;;;;;;;5.26;100.00;96907.69;5052488;28;24836;-73
2022/01/01 09:09:11;;;;;;;6.38;4.43;;;;;;;5.61;100.00;96902.59;5052789;28;25007;-74
2022/01/01 09:11:37;;;;;;;4.50;4.00;;;;;;;5.92;100.00;96905.22;5052660;28;24526;-73
2022/01/01 09:14:05;;;;;;;4.17;3.57;;;;;;;6.03;100.00;96898.94;5052621;28;24929;-74
2022/01/01 09:16:32;;;;;;;4.10;3.35;;;;;;;6.26;100.00;96894.88;5052215;28;24828;-74
2022/01/01 09:18:58;;;;;;;4.20;3.60;;;;;;;6.50;100.00;96901.09;5052322;28;24447;-74
2022/01/01 09:21:25;;;;;;;4.13;3.78;;;;;;;6.70;100.00;96908.22;5052497;28;24454;-74
2022/01/01 09:23:52;;;;;;;4.50;4.10;;;;;;;6.85;100.00;96910.34;5052466;28;24431;-73
2022/01/01 09:26:20;;;;;;;6.30;4.13;;;;;;;6.69;100.00;96915.09;5052166;28;24431;-75
2022/01/01 09:28:46;;;;;;;5.32;3.83;;;;;;;6.39;100.00;96923.72;5052269;28;24438;-72
2022/01/01 09:31:14;;;;;;;6.07;5.03;;;;;;;6.34;100.00;96926.41;5052344;28;24840;-72
2022/01/01 09:33:40;;;;;;;7.00;6.30;;;;;;;6.49;100.00;96930.28;5051868;28;24445;-74
2022/01/01 09:36:09;;;;;;;8.17;7.17;;;;;;;6.33;100.00;96936.72;5051980;28;24442;-72
2022/01/01 09:38:36;;;;;;;6.35;4.03;;;;;;;6.32;100.00;96937.63;5052143;28;24497;-76
2022/01/01 09:41:03;;;;;;;8.27;6.43;;;;;;;6.35;100.00;96928.09;5051962;28;25003;-76
2022/01/01 09:43:32;;;;;;;6.93;4.88;;;;;;;6.50;100.00;96935.38;5052260;28;24465;-73
2022/01/01 09:46:00;;;;;;;5.32;3.85;;;;;;;6.83;100.00;96927.59;5051407;28;24435;-73
2022/01/01 09:48:29;;;;;;;4.07;3.65;;;;;;;7.18;100.00;96923.09;5051695;28;24856;-73
2022/01/01 09:50:57;;;;;;;3.80;3.33;;;;;;;7.39;100.00;96937.06;5052063;28;24446;-72
2022/01/01 09:53:25;;;;;;;3.85;3.45;;;;;;;7.50;100.00;96929.81;5051709;28;24443;-73
2022/01/01 09:55:51;;;;;;;5.27;4.63;;;;;;;7.30;100.00;96927.00;5051322;28;24893;-73
2022/01/01 09:58:22;;;;;;;5.77;5.00;;;;;;;7.44;100.00;96928.25;5051624;28;24805;-73
2022/01/01 10:00:49;;;;;;;4.82;3.95;;;;;;;7.35;100.00;96928.56;5051694;28;24439;-73
2022/01/01 10:03:16;;;;;;;6.25;4.20;;;;;;;7.56;100.00;96916.72;5051457;28;24449;-73
2022/01/01 10:06:01;;;;;;;5.25;3.95;;;;;;;7.65;100.00;96913.84;5051586;28;24443;-74
2022/01/01 10:08:29;;;;;;;7.57;4.30;;;;;;;7.49;100.00;96921.25;5037600;28;24430;-76
2022/01/01 10:10:56;;;;;;;5.10;4.47;;;;;;;7.57;100.00;96922.75;5050837;28;24446;-75
2022/01/01 10:13:27;;;;;;;4.55;3.90;;;;;;;7.61;100.00;96914.00;5052143;28;24439;-74
2022/01/01 10:15:55;;;;;;;5.27;4.27;;;;;;;7.76;100.00;96910.91;5051301;28;24527;-77
2022/01/01 10:18:26;;;;;;;4.72;3.30;;;;;;;7.79;100.00;96913.41;5051529;28;24551;-74
2022/01/01 10:20:57;;;;;;;4.32;3.75;;;;;;;7.72;100.00;96914.50;5051558;28;24435;-74
2022/01/01 10:23:28;;;;;;;3.90;3.25;;;;;;;8.04;100.00;96895.31;5035192;28;24439;-74
2022/01/01 10:28:54;;;;;;;2.97;2.67;;;;;;;7.92;100.00;96901.75;5051246;28;24526;-74
2022/01/01 10:31:20;;;;;;;7.78;4.70;;;;;;;7.92;100.00;96891.44;5051014;28;24517;-74
2022/01/01 10:33:47;;;;;;;5.00;3.97;;;;;;;7.79;100.00;96892.75;5051149;28;24439;-75
2022/01/01 10:36:15;;;;;;;3.67;3.10;;;;;;;7.85;100.00;96892.53;5050646;28;24535;-73
2022/01/01 10:38:42;;;;;;;3.43;2.80;;;;;;;7.94;100.00;96887.09;5051169;28;24455;-74
2022/01/01 10:41:10;;;;;;;5.80;3.22;;;;;;;7.92;100.00;96885.44;5050809;28;24435;-74
2022/01/01 10:43:38;;;;;;;4.22;3.80;;;;;;;8.11;100.00;96888.22;5035469;28;21209;-73
2022/01/01 10:46:06;;;;;;;6.85;5.78;;;;;;;8.14;100.00;96890.69;5050383;28;24442;-73
2022/01/01 10:48:42;;;;;;;7.80;5.68;;;;;;;8.19;100.00;96889.66;5049930;28;24431;-73
2022/01/01 10:51:12;;;;;;;5.78;4.45;;;;;;;8.37;100.00;96882.13;5050417;28;24454;-73
2022/01/01 10:53:40;;;;;;;5.88;4.57;;;;;;;8.63;100.00;96870.88;5050464;28;24805;-75
2022/01/01 10:56:18;;;;;;;7.28;4.70;;;;;;;8.81;100.00;96880.50;5050232;28;24872;-78
2022/01/01 10:58:45;;;;;;;4.55;3.10;;;;;;;8.72;100.00;96876.53;5050796;28;20897;-77
2022/01/01 11:01:11;;;;;;;8.98;5.95;;;;;;;8.52;100.00;96873.00;5049800;28;24984;-75
2022/01/01 11:03:40;;;;;;;6.10;4.55;;;;;;;8.40;100.00;96874.31;5050428;28;20775;-75
2022/01/01 11:06:08;;;;;;;10.65;7.38;;;;;;;8.38;100.00;96865.75;5050406;28;20817;-75
2022/01/01 11:08:35;;;;;;;9.98;6.18;;;;;;;8.36;100.00;96858.06;5050646;28;20771;-78
2022/01/01 11:11:04;;;;;;;4.53;3.10;;;;;;;8.37;100.00;96854.59;5050765;28;20801;-74
2022/01/01 11:13:31;;;;;;;8.38;6.18;;;;;;;8.34;100.00;96854.69;5050428;28;20812;-74
2022/01/01 11:15:58;;;;;;;6.72;6.03;;;;;;;8.24;100.00;96853.34;5049982;28;20780;-74
2022/01/01 11:18:25;;;;;;;11.20;5.72;;;;;;;8.19;100.00;96850.06;5050307;28;24451;-74
2022/01/01 11:20:52;;;;;;;7.00;4.88;;;;;;;8.30;100.00;96841.94;5050423;28;24905;-74
2022/01/01 11:23:21;;;;;;;5.80;4.38;;;;;;;8.40;100.00;96838.16;5050203;28;21371;-75
2022/01/01 11:25:47;;;;;;;5.22;4.07;;;;;;;8.40;100.00;96844.16;5050147;28;20808;-75
2022/01/01 11:28:17;;;;;;;6.97;5.05;;;;;;;8.48;100.00;96836.97;5050036;28;21339;-75
2022/01/01 11:30:48;;;;;;;10.52;8.15;;;;;;;8.62;100.00;96835.63;5037101;28;20771;-74
2022/01/01 11:33:16;;;;;;;7.53;5.35;;;;;;;8.78;100.00;96828.97;5050147;28;20789;-73